sensor_id;sensor_type;location;lat;lon;timestamp;P1;durP1;ratioP1;P2;durP2;ratioP2
6292;SDS011;3179;54.350;10.102;2024-02-16T00:02:22;16.57;;;10.47;;
6292;SDS011;3179;54.350;10.102;2024-02-16T00:04:49;13.40;;;10.50;;
6292;SDS011;3179;54.350;10.102;2024-02-16T00:07:16;11.43;;;10.23;;
6292;SDS011;3179;54.350;10.102;2024-02-16T00:09:43;13.30;;;9.50;;
6292;SDS011;3179;54.350;10.102;2024-02-16T00:12:11;13.37;;;11.13;;
6292;SDS011;3179;54.350;10.102;2024-02-16T00:14:39;12.13;;;10.00;;
6292;SDS011;3179;54.350;10.102;2024-02-16T00:17:06;11.33;;;9.43;;
6292;SDS011;3179;54.350;10.102;2024-02-16T00:19:35;10.90;;;9.60;;
6292;SDS011;3179;54.350;10.102;2024-02-16T00:22:02;13.33;;;8.60;;
6292;SDS011;3179;54.350;10.102;2024-02-16T00:24:28;12.90;;;9.50;;
6292;SDS011;3179;54.350;10.102;2024-02-16T00:26:56;9.70;;;8.70;;
6292;SDS011;3179;54.350;10.102;2024-02-16T00:29:25;10.60;;;8.73;;
6292;SDS011;3179;54.350;10.102;2024-02-16T00:31:51;11.63;;;9.90;;
6292;SDS011;3179;54.350;10.102;2024-02-16T00:34:18;11.00;;;9.00;;
6292;SDS011;3179;54.350;10.102;2024-02-16T00:36:45;10.03;;;7.83;;
6292;SDS011;3179;54.350;10.102;2024-02-16T00:39:12;8.57;;;7.67;;
6292;SDS011;3179;54.350;10.102;2024-02-16T00:41:39;8.37;;;7.40;;
6292;SDS011;3179;54.350;10.102;2024-02-16T00:44:06;8.57;;;6.57;;
6292;SDS011;3179;54.350;10.102;2024-02-16T00:46:34;7.63;;;6.60;;
6292;SDS011;3179;54.350;10.102;2024-02-16T00:49:02;10.07;;;8.07;;
6292;SDS011;3179;54.350;10.102;2024-02-16T00:51:29;8.60;;;6.80;;
6292;SDS011;3179;54.350;10.102;2024-02-16T00:53:56;9.10;;;6.90;;
6292;SDS011;3179;54.350;10.102;2024-02-16T00:56:23;10.60;;;7.30;;
6292;SDS011;3179;54.350;10.102;2024-02-16T00:58:50;7.63;;;6.83;;
6292;SDS011;3179;54.350;10.102;2024-02-16T01:01:17;8.27;;;7.43;;
6292;SDS011;3179;54.350;10.102;2024-02-16T01:03:45;10.23;;;8.13;;
6292;SDS011;3179;54.350;10.102;2024-02-16T01:06:12;9.97;;;7.73;;
6292;SDS011;3179;54.350;10.102;2024-02-16T01:08:39;9.30;;;8.10;;
6292;SDS011;3179;54.350;10.102;2024-02-16T01:11:06;8.33;;;7.53;;
6292;SDS011;3179;54.350;10.102;2024-02-16T01:13:33;11.03;;;8.80;;
6292;SDS011;3179;54.350;10.102;2024-02-16T01:15:59;9.40;;;7.87;;
6292;SDS011;3179;54.350;10.102;2024-02-16T01:18:27;10.77;;;6.83;;
6292;SDS011;3179;54.350;10.102;2024-02-16T01:20:56;8.60;;;6.80;;
6292;SDS011;3179;54.350;10.102;2024-02-16T01:23:23;8.17;;;6.70;;
6292;SDS011;3179;54.350;10.102;2024-02-16T01:25:50;11.23;;;7.60;;
6292;SDS011;3179;54.350;10.102;2024-02-16T01:28:17;8.80;;;7.77;;
6292;SDS011;3179;54.350;10.102;2024-02-16T01:30:44;8.50;;;7.30;;
6292;SDS011;3179;54.350;10.102;2024-02-16T01:33:11;7.63;;;6.90;;
6292;SDS011;3179;54.350;10.102;2024-02-16T01:35:38;7.77;;;6.73;;
6292;SDS011;3179;54.350;10.102;2024-02-16T01:38:06;11.00;;;7.10;;
6292;SDS011;3179;54.350;10.102;2024-02-16T01:40:33;6.87;;;6.27;;
6292;SDS011;3179;54.350;10.102;2024-02-16T01:43:00;8.10;;;5.30;;
6292;SDS011;3179;54.350;10.102;2024-02-16T01:45:27;8.33;;;6.70;;
6292;SDS011;3179;54.350;10.102;2024-02-16T01:47:54;6.50;;;5.90;;
6292;SDS011;3179;54.350;10.102;2024-02-16T01:50:21;8.87;;;6.77;;
6292;SDS011;3179;54.350;10.102;2024-02-16T01:52:48;12.07;;;6.53;;
6292;SDS011;3179;54.350;10.102;2024-02-16T01:55:17;9.00;;;6.47;;
6292;SDS011;3179;54.350;10.102;2024-02-16T01:57:46;5.33;;;4.23;;
6292;SDS011;3179;54.350;10.102;2024-02-16T02:00:15;7.73;;;6.13;;
6292;SDS011;3179;54.350;10.102;2024-02-16T02:02:43;5.60;;;5.10;;
6292;SDS011;3179;54.350;10.102;2024-02-16T02:05:11;7.37;;;5.33;;
6292;SDS011;3179;54.350;10.102;2024-02-16T02:07:40;6.70;;;4.80;;
6292;SDS011;3179;54.350;10.102;2024-02-16T02:10:07;6.80;;;4.87;;
6292;SDS011;3179;54.350;10.102;2024-02-16T02:12:36;9.37;;;4.30;;
6292;SDS011;3179;54.350;10.102;2024-02-16T02:15:03;11.73;;;5.40;;
6292;SDS011;3179;54.350;10.102;2024-02-16T02:17:31;7.40;;;4.67;;
6292;SDS011;3179;54.350;10.102;2024-02-16T02:19:58;6.60;;;4.77;;
6292;SDS011;3179;54.350;10.102;2024-02-16T02:22:26;5.10;;;4.27;;
6292;SDS011;3179;54.350;10.102;2024-02-16T02:24:53;7.30;;;4.43;;
6292;SDS011;3179;54.350;10.102;2024-02-16T02:27:20;5.00;;;4.00;;
6292;SDS011;3179;54.350;10.102;2024-02-16T02:29:47;7.13;;;3.87;;
6292;SDS011;3179;54.350;10.102;2024-02-16T02:32:15;7.20;;;4.17;;
6292;SDS011;3179;54.350;10.102;2024-02-16T02:34:41;4.13;;;3.73;;
6292;SDS011;3179;54.350;10.102;2024-02-16T02:37:09;4.90;;;3.93;;
6292;SDS011;3179;54.350;10.102;2024-02-16T02:39:37;4.47;;;3.37;;
6292;SDS011;3179;54.350;10.102;2024-02-16T02:42:05;7.17;;;3.80;;
6292;SDS011;3179;54.350;10.102;2024-02-16T02:44:33;3.60;;;2.73;;
6292;SDS011;3179;54.350;10.102;2024-02-16T02:47:00;4.67;;;3.50;;
6292;SDS011;3179;54.350;10.102;2024-02-16T02:49:27;4.77;;;3.87;;
6292;SDS011;3179;54.350;10.102;2024-02-16T02:51:54;6.30;;;3.50;;
6292;SDS011;3179;54.350;10.102;2024-02-16T02:54:21;3.70;;;2.97;;
6292;SDS011;3179;54.350;10.102;2024-02-16T02:56:49;5.40;;;3.43;;
6292;SDS011;3179;54.350;10.102;2024-02-16T02:59:16;3.90;;;3.00;;
6292;SDS011;3179;54.350;10.102;2024-02-16T03:01:43;5.43;;;3.53;;
6292;SDS011;3179;54.350;10.102;2024-02-16T03:04:10;4.17;;;3.40;;
6292;SDS011;3179;54.350;10.102;2024-02-16T03:06:37;5.73;;;2.90;;
6292;SDS011;3179;54.350;10.102;2024-02-16T03:09:04;4.07;;;2.83;;
6292;SDS011;3179;54.350;10.102;2024-02-16T03:11:31;3.93;;;2.80;;
6292;SDS011;3179;54.350;10.102;2024-02-16T03:13:59;5.03;;;2.67;;
6292;SDS011;3179;54.350;10.102;2024-02-16T03:16:26;2.77;;;2.57;;
6292;SDS011;3179;54.350;10.102;2024-02-16T03:18:53;2.73;;;2.50;;
6292;SDS011;3179;54.350;10.102;2024-02-16T03:21:21;6.63;;;2.43;;
6292;SDS011;3179;54.350;10.102;2024-02-16T03:23:48;4.73;;;3.00;;
6292;SDS011;3179;54.350;10.102;2024-02-16T03:26:15;4.53;;;2.50;;
6292;SDS011;3179;54.350;10.102;2024-02-16T03:28:43;2.67;;;2.47;;
6292;SDS011;3179;54.350;10.102;2024-02-16T03:31:16;2.33;;;2.17;;
6292;SDS011;3179;54.350;10.102;2024-02-16T03:33:43;4.40;;;2.83;;
6292;SDS011;3179;54.350;10.102;2024-02-16T03:36:10;4.47;;;2.53;;
6292;SDS011;3179;54.350;10.102;2024-02-16T03:38:40;4.20;;;2.50;;
6292;SDS011;3179;54.350;10.102;2024-02-16T03:41:07;5.10;;;3.53;;
6292;SDS011;3179;54.350;10.102;2024-02-16T03:43:38;6.50;;;3.40;;
6292;SDS011;3179;54.350;10.102;2024-02-16T03:46:05;8.10;;;3.03;;
6292;SDS011;3179;54.350;10.102;2024-02-16T03:48:33;2.90;;;2.70;;
6292;SDS011;3179;54.350;10.102;2024-02-16T03:51:00;5.43;;;2.83;;
6292;SDS011;3179;54.350;10.102;2024-02-16T03:53:28;3.43;;;2.93;;
6292;SDS011;3179;54.350;10.102;2024-02-16T03:55:55;2.83;;;2.30;;
6292;SDS011;3179;54.350;10.102;2024-02-16T03:58:22;4.43;;;2.60;;
6292;SDS011;3179;54.350;10.102;2024-02-16T04:00:50;3.10;;;2.50;;
6292;SDS011;3179;54.350;10.102;2024-02-16T04:03:17;5.43;;;2.73;;
6292;SDS011;3179;54.350;10.102;2024-02-16T04:05:46;4.30;;;2.57;;
6292;SDS011;3179;54.350;10.102;2024-02-16T04:08:13;5.43;;;2.07;;
6292;SDS011;3179;54.350;10.102;2024-02-16T04:10:39;5.63;;;2.77;;
6292;SDS011;3179;54.350;10.102;2024-02-16T04:13:06;3.27;;;2.40;;
6292;SDS011;3179;54.350;10.102;2024-02-16T04:15:33;5.33;;;2.73;;
6292;SDS011;3179;54.350;10.102;2024-02-16T04:18:00;3.17;;;2.87;;
6292;SDS011;3179;54.350;10.102;2024-02-16T04:20:27;5.70;;;2.60;;
6292;SDS011;3179;54.350;10.102;2024-02-16T04:22:55;2.70;;;2.50;;
6292;SDS011;3179;54.350;10.102;2024-02-16T04:25:22;3.13;;;2.40;;
6292;SDS011;3179;54.350;10.102;2024-02-16T04:27:49;3.63;;;2.73;;
6292;SDS011;3179;54.350;10.102;2024-02-16T04:30:16;3.40;;;2.50;;
6292;SDS011;3179;54.350;10.102;2024-02-16T04:32:42;3.63;;;2.27;;
6292;SDS011;3179;54.350;10.102;2024-02-16T04:35:09;3.97;;;2.00;;
6292;SDS011;3179;54.350;10.102;2024-02-16T04:37:37;2.00;;;1.90;;
6292;SDS011;3179;54.350;10.102;2024-02-16T04:40:06;4.80;;;2.87;;
6292;SDS011;3179;54.350;10.102;2024-02-16T04:42:37;4.60;;;2.50;;
6292;SDS011;3179;54.350;10.102;2024-02-16T04:45:05;4.67;;;2.43;;
6292;SDS011;3179;54.350;10.102;2024-02-16T04:47:33;5.80;;;2.93;;
6292;SDS011;3179;54.350;10.102;2024-02-16T04:50:00;2.93;;;2.73;;
6292;SDS011;3179;54.350;10.102;2024-02-16T04:52:28;2.20;;;2.00;;
6292;SDS011;3179;54.350;10.102;2024-02-16T04:54:55;4.23;;;2.77;;
6292;SDS011;3179;54.350;10.102;2024-02-16T04:57:23;3.43;;;2.80;;
6292;SDS011;3179;54.350;10.102;2024-02-16T04:59:50;7.20;;;2.13;;
6292;SDS011;3179;54.350;10.102;2024-02-16T05:02:16;2.10;;;2.00;;
6292;SDS011;3179;54.350;10.102;2024-02-16T05:04:43;4.20;;;2.57;;
6292;SDS011;3179;54.350;10.102;2024-02-16T05:07:10;3.23;;;2.20;;
6292;SDS011;3179;54.350;10.102;2024-02-16T05:09:37;4.20;;;2.77;;
6292;SDS011;3179;54.350;10.102;2024-02-16T05:12:05;8.30;;;3.07;;
6292;SDS011;3179;54.350;10.102;2024-02-16T05:14:35;3.93;;;2.20;;
6292;SDS011;3179;54.350;10.102;2024-02-16T05:17:01;3.23;;;2.77;;
6292;SDS011;3179;54.350;10.102;2024-02-16T05:19:31;3.87;;;3.00;;
6292;SDS011;3179;54.350;10.102;2024-02-16T05:21:59;5.07;;;3.00;;
6292;SDS011;3179;54.350;10.102;2024-02-16T05:24:26;2.97;;;2.67;;
6292;SDS011;3179;54.350;10.102;2024-02-16T05:26:53;3.37;;;2.43;;
6292;SDS011;3179;54.350;10.102;2024-02-16T05:29:20;3.60;;;2.53;;
6292;SDS011;3179;54.350;10.102;2024-02-16T05:31:51;3.67;;;2.67;;
6292;SDS011;3179;54.350;10.102;2024-02-16T05:34:18;3.30;;;2.43;;
6292;SDS011;3179;54.350;10.102;2024-02-16T05:36:45;2.63;;;2.17;;
6292;SDS011;3179;54.350;10.102;2024-02-16T05:39:12;6.03;;;2.90;;
6292;SDS011;3179;54.350;10.102;2024-02-16T05:41:51;4.33;;;2.47;;
6292;SDS011;3179;54.350;10.102;2024-02-16T05:44:18;2.87;;;2.53;;
6292;SDS011;3179;54.350;10.102;2024-02-16T05:46:46;2.17;;;1.97;;
6292;SDS011;3179;54.350;10.102;2024-02-16T05:49:14;3.43;;;2.23;;
6292;SDS011;3179;54.350;10.102;2024-02-16T05:51:41;2.93;;;2.70;;
6292;SDS011;3179;54.350;10.102;2024-02-16T05:54:25;6.37;;;2.50;;
6292;SDS011;3179;54.350;10.102;2024-02-16T05:56:51;4.33;;;2.37;;
6292;SDS011;3179;54.350;10.102;2024-02-16T05:59:19;3.50;;;2.23;;
6292;SDS011;3179;54.350;10.102;2024-02-16T06:01:47;2.83;;;2.00;;
6292;SDS011;3179;54.350;10.102;2024-02-16T06:04:15;4.00;;;2.33;;
6292;SDS011;3179;54.350;10.102;2024-02-16T06:06:42;3.50;;;2.20;;
6292;SDS011;3179;54.350;10.102;2024-02-16T06:09:09;7.80;;;2.63;;
6292;SDS011;3179;54.350;10.102;2024-02-16T06:11:36;3.60;;;2.70;;
6292;SDS011;3179;54.350;10.102;2024-02-16T06:14:03;5.37;;;2.70;;
6292;SDS011;3179;54.350;10.102;2024-02-16T06:16:30;2.33;;;2.13;;
6292;SDS011;3179;54.350;10.102;2024-02-16T06:18:57;2.37;;;2.13;;
6292;SDS011;3179;54.350;10.102;2024-02-16T06:21:25;2.50;;;1.97;;
6292;SDS011;3179;54.350;10.102;2024-02-16T06:23:52;2.40;;;2.20;;
6292;SDS011;3179;54.350;10.102;2024-02-16T06:26:19;2.80;;;2.40;;
6292;SDS011;3179;54.350;10.102;2024-02-16T06:28:46;4.60;;;2.77;;
6292;SDS011;3179;54.350;10.102;2024-02-16T06:31:13;2.40;;;2.20;;
6292;SDS011;3179;54.350;10.102;2024-02-16T06:33:40;5.53;;;3.10;;
6292;SDS011;3179;54.350;10.102;2024-02-16T06:36:07;4.17;;;2.43;;
6292;SDS011;3179;54.350;10.102;2024-02-16T06:38:36;5.73;;;3.30;;
6292;SDS011;3179;54.350;10.102;2024-02-16T06:41:03;5.43;;;2.53;;
6292;SDS011;3179;54.350;10.102;2024-02-16T06:43:30;2.63;;;2.30;;
6292;SDS011;3179;54.350;10.102;2024-02-16T06:45:57;6.07;;;2.73;;
6292;SDS011;3179;54.350;10.102;2024-02-16T06:48:24;3.07;;;2.40;;
6292;SDS011;3179;54.350;10.102;2024-02-16T06:50:51;3.93;;;2.10;;
6292;SDS011;3179;54.350;10.102;2024-02-16T06:53:19;9.40;;;2.77;;
6292;SDS011;3179;54.350;10.102;2024-02-16T06:55:47;6.63;;;2.50;;
6292;SDS011;3179;54.350;10.102;2024-02-16T06:58:14;6.20;;;2.53;;
6292;SDS011;3179;54.350;10.102;2024-02-16T07:00:41;4.37;;;2.77;;
6292;SDS011;3179;54.350;10.102;2024-02-16T07:03:08;3.37;;;2.60;;
6292;SDS011;3179;54.350;10.102;2024-02-16T07:05:35;3.00;;;2.07;;
6292;SDS011;3179;54.350;10.102;2024-02-16T07:08:02;3.03;;;2.23;;
6292;SDS011;3179;54.350;10.102;2024-02-16T07:10:31;3.90;;;2.63;;
6292;SDS011;3179;54.350;10.102;2024-02-16T07:12:59;4.00;;;2.23;;
6292;SDS011;3179;54.350;10.102;2024-02-16T07:15:26;2.53;;;2.00;;
6292;SDS011;3179;54.350;10.102;2024-02-16T07:17:53;2.77;;;2.20;;
6292;SDS011;3179;54.350;10.102;2024-02-16T07:20:20;3.00;;;2.30;;
6292;SDS011;3179;54.350;10.102;2024-02-16T07:22:47;2.60;;;2.40;;
6292;SDS011;3179;54.350;10.102;2024-02-16T07:25:16;2.67;;;2.47;;
6292;SDS011;3179;54.350;10.102;2024-02-16T07:27:43;4.70;;;2.20;;
6292;SDS011;3179;54.350;10.102;2024-02-16T07:30:12;2.90;;;2.20;;
6292;SDS011;3179;54.350;10.102;2024-02-16T07:32:39;2.30;;;2.10;;
6292;SDS011;3179;54.350;10.102;2024-02-16T07:35:06;2.53;;;2.23;;
6292;SDS011;3179;54.350;10.102;2024-02-16T07:37:35;4.80;;;2.40;;
6292;SDS011;3179;54.350;10.102;2024-02-16T07:40:02;3.20;;;2.10;;
6292;SDS011;3179;54.350;10.102;2024-02-16T07:42:31;5.13;;;2.77;;
6292;SDS011;3179;54.350;10.102;2024-02-16T07:44:58;3.40;;;2.00;;
6292;SDS011;3179;54.350;10.102;2024-02-16T07:47:26;4.90;;;2.57;;
6292;SDS011;3179;54.350;10.102;2024-02-16T07:49:53;4.30;;;2.50;;
6292;SDS011;3179;54.350;10.102;2024-02-16T07:52:20;3.77;;;2.20;;
6292;SDS011;3179;54.350;10.102;2024-02-16T07:54:47;5.23;;;2.50;;
6292;SDS011;3179;54.350;10.102;2024-02-16T07:57:16;2.93;;;2.60;;
6292;SDS011;3179;54.350;10.102;2024-02-16T07:59:43;4.97;;;2.27;;
6292;SDS011;3179;54.350;10.102;2024-02-16T08:02:10;2.53;;;2.00;;
6292;SDS011;3179;54.350;10.102;2024-02-16T08:04:41;2.40;;;2.20;;
6292;SDS011;3179;54.350;10.102;2024-02-16T08:07:09;1.80;;;1.67;;
6292;SDS011;3179;54.350;10.102;2024-02-16T08:09:36;1.93;;;1.70;;
6292;SDS011;3179;54.350;10.102;2024-02-16T08:12:04;4.10;;;2.27;;
6292;SDS011;3179;54.350;10.102;2024-02-16T08:14:32;2.93;;;2.00;;
6292;SDS011;3179;54.350;10.102;2024-02-16T08:16:59;2.80;;;2.00;;
6292;SDS011;3179;54.350;10.102;2024-02-16T08:19:26;2.60;;;2.40;;
6292;SDS011;3179;54.350;10.102;2024-02-16T08:22:00;3.30;;;2.10;;
6292;SDS011;3179;54.350;10.102;2024-02-16T08:24:27;2.40;;;2.10;;
6292;SDS011;3179;54.350;10.102;2024-02-16T08:26:53;2.20;;;2.03;;
6292;SDS011;3179;54.350;10.102;2024-02-16T08:29:21;2.60;;;1.87;;
6292;SDS011;3179;54.350;10.102;2024-02-16T08:31:48;4.10;;;2.00;;
6292;SDS011;3179;54.350;10.102;2024-02-16T08:34:16;6.07;;;2.57;;
6292;SDS011;3179;54.350;10.102;2024-02-16T08:36:43;4.73;;;2.53;;
6292;SDS011;3179;54.350;10.102;2024-02-16T08:39:12;2.00;;;1.90;;
6292;SDS011;3179;54.350;10.102;2024-02-16T08:41:39;4.13;;;2.30;;
6292;SDS011;3179;54.350;10.102;2024-02-16T08:44:06;3.23;;;2.37;;
6292;SDS011;3179;54.350;10.102;2024-02-16T08:46:34;2.60;;;2.07;;
6292;SDS011;3179;54.350;10.102;2024-02-16T08:49:01;4.47;;;2.43;;
6292;SDS011;3179;54.350;10.102;2024-02-16T08:51:28;2.90;;;2.30;;
6292;SDS011;3179;54.350;10.102;2024-02-16T08:53:57;3.33;;;2.40;;
6292;SDS011;3179;54.350;10.102;2024-02-16T08:56:25;3.20;;;1.90;;
6292;SDS011;3179;54.350;10.102;2024-02-16T08:58:53;2.93;;;1.80;;
6292;SDS011;3179;54.350;10.102;2024-02-16T09:01:29;7.60;;;2.10;;
6292;SDS011;3179;54.350;10.102;2024-02-16T09:03:56;5.00;;;2.03;;
6292;SDS011;3179;54.350;10.102;2024-02-16T09:06:23;2.87;;;2.00;;
6292;SDS011;3179;54.350;10.102;2024-02-16T09:08:50;3.63;;;1.80;;
6292;SDS011;3179;54.350;10.102;2024-02-16T09:11:17;5.40;;;2.53;;
6292;SDS011;3179;54.350;10.102;2024-02-16T09:13:46;5.53;;;2.10;;
6292;SDS011;3179;54.350;10.102;2024-02-16T09:16:13;2.20;;;1.83;;
6292;SDS011;3179;54.350;10.102;2024-02-16T09:18:40;3.23;;;1.90;;
6292;SDS011;3179;54.350;10.102;2024-02-16T09:21:07;2.60;;;1.77;;
6292;SDS011;3179;54.350;10.102;2024-02-16T09:23:35;1.90;;;1.80;;
6292;SDS011;3179;54.350;10.102;2024-02-16T09:26:02;2.70;;;1.93;;
6292;SDS011;3179;54.350;10.102;2024-02-16T09:28:30;4.77;;;2.07;;
6292;SDS011;3179;54.350;10.102;2024-02-16T09:30:58;2.77;;;1.70;;
6292;SDS011;3179;54.350;10.102;2024-02-16T09:33:25;4.13;;;1.83;;
6292;SDS011;3179;54.350;10.102;2024-02-16T09:35:53;3.70;;;2.00;;
6292;SDS011;3179;54.350;10.102;2024-02-16T09:38:20;2.03;;;1.47;;
6292;SDS011;3179;54.350;10.102;2024-02-16T09:40:46;1.60;;;1.50;;
6292;SDS011;3179;54.350;10.102;2024-02-16T09:43:22;1.77;;;1.50;;
6292;SDS011;3179;54.350;10.102;2024-02-16T09:45:53;2.40;;;1.83;;
6292;SDS011;3179;54.350;10.102;2024-02-16T09:48:22;2.63;;;1.70;;
6292;SDS011;3179;54.350;10.102;2024-02-16T09:50:52;3.13;;;1.60;;
6292;SDS011;3179;54.350;10.102;2024-02-16T09:53:20;1.83;;;1.73;;
6292;SDS011;3179;54.350;10.102;2024-02-16T09:55:50;4.33;;;1.50;;
6292;SDS011;3179;54.350;10.102;2024-02-16T09:58:17;6.23;;;1.93;;
6292;SDS011;3179;54.350;10.102;2024-02-16T10:00:48;3.23;;;2.20;;
6292;SDS011;3179;54.350;10.102;2024-02-16T10:03:26;1.83;;;1.63;;
6292;SDS011;3179;54.350;10.102;2024-02-16T10:06:03;2.90;;;1.70;;
6292;SDS011;3179;54.350;10.102;2024-02-16T10:08:31;2.70;;;1.70;;
6292;SDS011;3179;54.350;10.102;2024-02-16T10:11:02;1.77;;;1.67;;
6292;SDS011;3179;54.350;10.102;2024-02-16T10:13:29;7.43;;;1.77;;
6292;SDS011;3179;54.350;10.102;2024-02-16T10:16:06;4.00;;;1.57;;
6292;SDS011;3179;54.350;10.102;2024-02-16T10:18:35;2.97;;;1.40;;
6292;SDS011;3179;54.350;10.102;2024-02-16T10:21:02;1.37;;;1.27;;
6292;SDS011;3179;54.350;10.102;2024-02-16T10:23:29;2.80;;;1.87;;
6292;SDS011;3179;54.350;10.102;2024-02-16T10:25:57;3.47;;;2.00;;
6292;SDS011;3179;54.350;10.102;2024-02-16T10:28:25;2.90;;;1.70;;
6292;SDS011;3179;54.350;10.102;2024-02-16T10:30:56;1.90;;;1.60;;
6292;SDS011;3179;54.350;10.102;2024-02-16T10:33:24;3.73;;;1.50;;
6292;SDS011;3179;54.350;10.102;2024-02-16T10:35:54;5.13;;;1.80;;
6292;SDS011;3179;54.350;10.102;2024-02-16T10:38:22;2.80;;;1.90;;
6292;SDS011;3179;54.350;10.102;2024-02-16T10:40:50;3.13;;;1.87;;
6292;SDS011;3179;54.350;10.102;2024-02-16T10:43:18;1.60;;;1.50;;
6292;SDS011;3179;54.350;10.102;2024-02-16T10:45:47;1.90;;;1.67;;
6292;SDS011;3179;54.350;10.102;2024-02-16T10:48:17;5.50;;;2.70;;
6292;SDS011;3179;54.350;10.102;2024-02-16T10:50:45;1.87;;;1.70;;
6292;SDS011;3179;54.350;10.102;2024-02-16T10:53:15;1.50;;;1.33;;
6292;SDS011;3179;54.350;10.102;2024-02-16T10:55:48;5.10;;;1.80;;
6292;SDS011;3179;54.350;10.102;2024-02-16T10:58:16;2.43;;;1.90;;
6292;SDS011;3179;54.350;10.102;2024-02-16T11:00:50;3.70;;;2.00;;
6292;SDS011;3179;54.350;10.102;2024-02-16T11:03:18;3.00;;;1.80;;
6292;SDS011;3179;54.350;10.102;2024-02-16T11:05:49;1.90;;;1.40;;
6292;SDS011;3179;54.350;10.102;2024-02-16T11:08:18;3.77;;;1.83;;
6292;SDS011;3179;54.350;10.102;2024-02-16T11:10:59;1.63;;;1.53;;
6292;SDS011;3179;54.350;10.102;2024-02-16T11:13:31;2.20;;;1.50;;
6292;SDS011;3179;54.350;10.102;2024-02-16T11:16:00;3.27;;;2.20;;
6292;SDS011;3179;54.350;10.102;2024-02-16T11:18:28;3.60;;;2.27;;
6292;SDS011;3179;54.350;10.102;2024-02-16T11:20:55;3.97;;;1.87;;
6292;SDS011;3179;54.350;10.102;2024-02-16T11:23:28;1.80;;;1.60;;
6292;SDS011;3179;54.350;10.102;2024-02-16T11:25:59;2.70;;;1.70;;
6292;SDS011;3179;54.350;10.102;2024-02-16T11:28:28;2.23;;;1.70;;
6292;SDS011;3179;54.350;10.102;2024-02-16T11:30:57;2.17;;;1.97;;
6292;SDS011;3179;54.350;10.102;2024-02-16T11:33:23;3.07;;;1.67;;
6292;SDS011;3179;54.350;10.102;2024-02-16T11:35:52;4.60;;;2.50;;
6292;SDS011;3179;54.350;10.102;2024-02-16T11:38:20;2.27;;;1.80;;
6292;SDS011;3179;54.350;10.102;2024-02-16T11:40:54;1.97;;;1.87;;
6292;SDS011;3179;54.350;10.102;2024-02-16T11:43:21;2.13;;;1.80;;
6292;SDS011;3179;54.350;10.102;2024-02-16T11:45:49;2.47;;;1.67;;
6292;SDS011;3179;54.350;10.102;2024-02-16T11:48:19;3.43;;;1.90;;
6292;SDS011;3179;54.350;10.102;2024-02-16T11:50:46;6.37;;;2.07;;
6292;SDS011;3179;54.350;10.102;2024-02-16T11:53:15;3.07;;;1.83;;
6292;SDS011;3179;54.350;10.102;2024-02-16T11:55:48;5.23;;;2.40;;
6292;SDS011;3179;54.350;10.102;2024-02-16T11:58:17;6.30;;;2.60;;
6292;SDS011;3179;54.350;10.102;2024-02-16T12:00:47;2.87;;;2.00;;
6292;SDS011;3179;54.350;10.102;2024-02-16T12:03:18;4.07;;;2.43;;
6292;SDS011;3179;54.350;10.102;2024-02-16T12:05:49;2.40;;;2.20;;
6292;SDS011;3179;54.350;10.102;2024-02-16T12:08:17;4.20;;;2.07;;
6292;SDS011;3179;54.350;10.102;2024-02-16T12:10:44;3.20;;;2.90;;
6292;SDS011;3179;54.350;10.102;2024-02-16T12:13:11;6.17;;;2.23;;
6292;SDS011;3179;54.350;10.102;2024-02-16T12:15:40;3.33;;;1.90;;
6292;SDS011;3179;54.350;10.102;2024-02-16T12:18:07;3.60;;;2.40;;
6292;SDS011;3179;54.350;10.102;2024-02-16T12:20:34;5.87;;;2.63;;
6292;SDS011;3179;54.350;10.102;2024-02-16T12:23:10;3.57;;;1.83;;
6292;SDS011;3179;54.350;10.102;2024-02-16T12:25:38;2.93;;;2.03;;
6292;SDS011;3179;54.350;10.102;2024-02-16T12:28:05;4.73;;;2.13;;
6292;SDS011;3179;54.350;10.102;2024-02-16T12:30:32;2.40;;;2.20;;
6292;SDS011;3179;54.350;10.102;2024-02-16T12:33:01;5.23;;;2.53;;
6292;SDS011;3179;54.350;10.102;2024-02-16T12:35:28;3.17;;;2.73;;
6292;SDS011;3179;54.350;10.102;2024-02-16T12:37:55;3.10;;;2.80;;
6292;SDS011;3179;54.350;10.102;2024-02-16T12:40:22;3.03;;;2.43;;
6292;SDS011;3179;54.350;10.102;2024-02-16T12:42:48;3.57;;;2.97;;
6292;SDS011;3179;54.350;10.102;2024-02-16T12:45:15;4.73;;;3.00;;
6292;SDS011;3179;54.350;10.102;2024-02-16T12:47:42;2.60;;;2.40;;
6292;SDS011;3179;54.350;10.102;2024-02-16T12:50:11;5.80;;;2.77;;
6292;SDS011;3179;54.350;10.102;2024-02-16T12:52:39;3.20;;;2.23;;
6292;SDS011;3179;54.350;10.102;2024-02-16T12:55:06;4.67;;;2.80;;
6292;SDS011;3179;54.350;10.102;2024-02-16T12:57:35;2.97;;;2.27;;
6292;SDS011;3179;54.350;10.102;2024-02-16T13:00:03;2.37;;;2.13;;
6292;SDS011;3179;54.350;10.102;2024-02-16T13:02:30;3.13;;;2.57;;
6292;SDS011;3179;54.350;10.102;2024-02-16T13:04:57;2.70;;;2.43;;
6292;SDS011;3179;54.350;10.102;2024-02-16T13:07:25;10.00;;;3.50;;
6292;SDS011;3179;54.350;10.102;2024-02-16T13:09:52;3.50;;;2.57;;
6292;SDS011;3179;54.350;10.102;2024-02-16T13:12:19;8.93;;;2.93;;
6292;SDS011;3179;54.350;10.102;2024-02-16T13:14:48;6.40;;;2.53;;
6292;SDS011;3179;54.350;10.102;2024-02-16T13:17:15;5.07;;;3.10;;
6292;SDS011;3179;54.350;10.102;2024-02-16T13:19:43;7.70;;;2.90;;
6292;SDS011;3179;54.350;10.102;2024-02-16T13:22:10;5.70;;;3.13;;
6292;SDS011;3179;54.350;10.102;2024-02-16T13:24:38;7.13;;;3.40;;
6292;SDS011;3179;54.350;10.102;2024-02-16T13:27:06;3.23;;;2.80;;
6292;SDS011;3179;54.350;10.102;2024-02-16T13:29:33;4.23;;;3.10;;
6292;SDS011;3179;54.350;10.102;2024-02-16T13:32:01;4.97;;;3.10;;
6292;SDS011;3179;54.350;10.102;2024-02-16T13:34:28;5.97;;;3.60;;
6292;SDS011;3179;54.350;10.102;2024-02-16T13:36:55;4.13;;;3.33;;
6292;SDS011;3179;54.350;10.102;2024-02-16T13:39:22;4.67;;;3.00;;
6292;SDS011;3179;54.350;10.102;2024-02-16T13:41:53;4.80;;;3.40;;
6292;SDS011;3179;54.350;10.102;2024-02-16T13:44:22;4.93;;;3.30;;
6292;SDS011;3179;54.350;10.102;2024-02-16T13:46:49;3.40;;;3.10;;
6292;SDS011;3179;54.350;10.102;2024-02-16T13:49:16;4.53;;;3.70;;
6292;SDS011;3179;54.350;10.102;2024-02-16T13:51:43;4.70;;;3.67;;
6292;SDS011;3179;54.350;10.102;2024-02-16T13:54:10;3.80;;;3.40;;
6292;SDS011;3179;54.350;10.102;2024-02-16T13:56:37;4.23;;;3.73;;
6292;SDS011;3179;54.350;10.102;2024-02-16T13:59:06;6.33;;;3.80;;
6292;SDS011;3179;54.350;10.102;2024-02-16T14:01:33;4.73;;;3.20;;
6292;SDS011;3179;54.350;10.102;2024-02-16T14:04:00;4.53;;;3.20;;
6292;SDS011;3179;54.350;10.102;2024-02-16T14:06:38;3.87;;;3.33;;
6292;SDS011;3179;54.350;10.102;2024-02-16T14:09:05;4.43;;;3.03;;
6292;SDS011;3179;54.350;10.102;2024-02-16T14:11:33;4.70;;;3.50;;
6292;SDS011;3179;54.350;10.102;2024-02-16T14:14:00;3.83;;;3.37;;
6292;SDS011;3179;54.350;10.102;2024-02-16T14:16:29;4.20;;;3.37;;
6292;SDS011;3179;54.350;10.102;2024-02-16T14:18:56;8.57;;;4.10;;
6292;SDS011;3179;54.350;10.102;2024-02-16T14:21:23;5.77;;;3.70;;
6292;SDS011;3179;54.350;10.102;2024-02-16T14:23:50;6.97;;;4.00;;
6292;SDS011;3179;54.350;10.102;2024-02-16T14:26:17;5.43;;;3.70;;
6292;SDS011;3179;54.350;10.102;2024-02-16T14:28:44;5.60;;;4.27;;
6292;SDS011;3179;54.350;10.102;2024-02-16T14:31:11;5.97;;;3.87;;
6292;SDS011;3179;54.350;10.102;2024-02-16T14:33:40;5.50;;;4.43;;
6292;SDS011;3179;54.350;10.102;2024-02-16T14:36:08;4.90;;;4.33;;
6292;SDS011;3179;54.350;10.102;2024-02-16T14:38:36;4.27;;;3.87;;
6292;SDS011;3179;54.350;10.102;2024-02-16T14:41:03;8.27;;;4.57;;
6292;SDS011;3179;54.350;10.102;2024-02-16T14:43:30;4.77;;;4.37;;
6292;SDS011;3179;54.350;10.102;2024-02-16T14:45:58;4.10;;;3.70;;
6292;SDS011;3179;54.350;10.102;2024-02-16T14:48:25;7.93;;;4.87;;
6292;SDS011;3179;54.350;10.102;2024-02-16T14:50:53;6.03;;;4.90;;
6292;SDS011;3179;54.350;10.102;2024-02-16T14:53:20;5.70;;;4.77;;
6292;SDS011;3179;54.350;10.102;2024-02-16T14:55:47;7.00;;;4.97;;
6292;SDS011;3179;54.350;10.102;2024-02-16T14:58:15;5.67;;;3.77;;
6292;SDS011;3179;54.350;10.102;2024-02-16T15:00:42;5.77;;;4.83;;
6292;SDS011;3179;54.350;10.102;2024-02-16T15:03:09;4.80;;;4.20;;
6292;SDS011;3179;54.350;10.102;2024-02-16T15:05:36;4.57;;;4.17;;